ADDS METAR Data INFO
IDs: Format: Raw Decoded Include TAF

Data at: 0503 UTC 23 May 2017

KPVW 230455Z AUTO 05009KT 10SM BKN025 16/12 A3002 RMK AO2 T01560115
KPVW 230435Z AUTO 05009KT 10SM SCT027 SCT033 16/12 A3002 RMK AO2 T01560115
KPVW 230415Z AUTO 07009G14KT 7SM SCT027 SCT033 16/12 A3002 RMK AO2 T01640116
KPVW 230355Z AUTO 07010KT 7SM CLR 17/12 A3002 RMK AO2 T01650116
KPVW 230335Z AUTO 07011KT 7SM SCT028 SCT034 17/12 A3002 RMK AO2 T01680115
KPVW 230315Z AUTO 07009KT 7SM SCT028 SCT034 17/12 A3002 RMK AO2 T01700115
KPVW 230255Z AUTO 07008KT 7SM CLR 17/11 A3001 RMK AO2 T01700114
KPVW 230235Z AUTO 06007KT 10SM CLR 17/11 A3000 RMK AO2 LTG DSNT E T01740112
KPVW 230215Z AUTO 05009KT 10SM CLR 18/11 A2998 RMK AO2 T01800114
KPVW 230155Z AUTO 04010KT 10SM CLR 19/11 A2997 RMK AO2 T01850113
KPVW 230135Z AUTO 04012KT 10SM CLR 19/12 A2997 RMK AO2 T01900115
KPVW 230115Z AUTO 03013G16KT 10SM CLR 20/12 A2996 RMK AO2 T01950115
KPVW 230055Z AUTO 04011G15KT 10SM CLR 21/11 A2995 RMK AO2 T02050111 TSNO
KPVW 230035Z AUTO 02010G14KT 10SM CLR 22/11 A2995 RMK AO2 LTG DSNT E T02150105
KPVW 230015Z AUTO 02010KT 10SM SCT050 22/10 A2994 RMK AO2 T02160101
KPVW 222355Z AUTO 01005KT 10SM BKN050 22/10 A2994 RMK AO2 LTG DSNT NE T02200101 10227 20185
KPVW 222335Z AUTO 00000KT 10SM BKN050 22/10 A2995 RMK AO2 T02210104 TSNO
KPVW 222315Z AUTO 32003KT 10SM SCT060 23/10 A2995 RMK AO2 T02250102
KPVW 222255Z AUTO 29007KT 10SM SCT060 23/10 A2997 RMK AO2 LTG DSNT NE T02260100
KPVW 222235Z AUTO 33004KT 10SM SCT050 22/11 A2998 RMK AO2 T02240107
KPVW 222215Z AUTO 29006KT 10SM SCT050 SCT120 22/11 A2998 RMK AO2 LTG DSNT NE T02180109
KPVW 222155Z AUTO 30006KT 10SM SCT060 SCT120 21/11 A2999 RMK AO2 T02140113
KPVW 222135Z AUTO 28008KT 10SM BKN060 21/12 A3000 RMK AO2 T02120116
KPVW 222115Z AUTO 30008KT 10SM OVC050 21/12 A3000 RMK AO2 T02110115
KPVW 222055Z AUTO 34005KT 10SM SCT038 OVC050 21/12 A3000 RMK AO2 T02110115
KPVW 222035Z AUTO 29004KT 10SM BKN038 BKN043 OVC055 21/12 A3001 RMK AO2 T02080115
KPVW 222015Z AUTO 01005KT 10SM BKN039 OVC046 21/12 A3002 RMK AO2 T02050115
KPVW 221955Z AUTO 36007KT 10SM OVC039 20/12 A3002 RMK AO2 T02030115
KPVW 221935Z AUTO 32004KT 10SM OVC037 20/11 A3003 RMK AO2 T01990114
KPVW 221915Z AUTO 00000KT 10SM OVC035 20/11 A3004 RMK AO2 T01950113
KPVW 221855Z AUTO 28003KT 10SM BKN035 OVC046 19/12 A3004 RMK AO2 T01940115
KPVW 221835Z AUTO 00000KT 10SM BKN035 OVC045 19/12 A3005 RMK AO2 T01920115
KPVW 221815Z AUTO 00000KT 10SM OVC033 19/12 A3005 RMK AO2 T01880115
KPVW 221755Z AUTO 08003KT 10SM BKN029 OVC037 18/11 A3006 RMK AO2 T01840114 10188 20111
KPVW 221735Z AUTO 00000KT 10SM OVC037 18/11 A3007 RMK AO2 T01830114
KPVW 221715Z AUTO 00000KT 10SM BKN030 OVC035 18/11 A3008 RMK AO2 T01780113
KPVW 221655Z AUTO 00000KT 10SM BKN026 OVC031 17/11 A3008 RMK AO2 T01740113
KPVW 221635Z AUTO 00000KT 10SM BKN023 BKN028 BKN033 17/11 A3008 RMK AO2 T01700112
KPVW 221615Z AUTO 00000KT 10SM BKN023 16/11 A3008 RMK AO2 T01610110
KPVW 221555Z AUTO 16003KT 10SM OVC021 16/11 A3008 RMK AO2 T01620111
KPVW 221535Z AUTO 00000KT 10SM OVC021 16/11 A3010 RMK AO2 T01550109
KPVW 221515Z AUTO 17003KT 10SM BKN021 15/11 A3011 RMK AO2 T01540106
KPVW 221455Z AUTO 07004KT 10SM OVC021 15/11 A3011 RMK AO2 T01500105
KPVW 221435Z AUTO 05004KT 10SM OVC019 14/10 A3011 RMK AO2 T01390098
KPVW 221415Z AUTO 06007KT 10SM OVC019 13/10 A3010 RMK AO2 T01320096
KPVW 221355Z AUTO 06006KT 10SM BKN019 12/09 A3010 RMK AO2 T01220093
KPVW 221335Z AUTO 05005KT 10SM SCT015 SCT022 12/10 A3011 RMK AO2 T01170095
KPVW 221315Z AUTO 07005KT 10SM SCT015 SCT110 12/10 A3011 RMK AO2 T01180096
KPVW 221255Z AUTO 08008KT 10SM SCT015 12/10 A3009 RMK AO2 T01160100
KPVW 221235Z AUTO 10006KT 10SM SCT120 12/10 A3009 RMK AO2 T01160099
KPVW 221215Z AUTO 00000KT 10SM SCT060 SCT120 12/09 A3009 RMK AO2 T01150092
KPVW 221155Z AUTO 16007KT 10SM -RA SCT060 BKN090 BKN120 11/10 A3009 RMK AO2 P0002 60002 70002 T01110095 10143 20106
KPVW 221135Z AUTO 19005KT 10SM RA SCT037 OVC090 11/09 A3012 RMK AO2 T01130085
KPVW 221115Z AUTO 28008KT 10SM -RA BKN037 BKN120 12/08 A3014 RMK AO2 LTG DSNT N T01150076
KPVW 221055Z AUTO 28005KT 10SM CLR 11/07 A3011 RMK AO2 T01100072
KPVW 221035Z AUTO 00000KT 10SM CLR 11/07 A3010 RMK AO2 T01090070
KPVW 221015Z AUTO 19003KT 10SM CLR 11/07 A3009 RMK AO2 T01070070
KPVW 220955Z AUTO 17005KT 10SM CLR 11/07 A3009 RMK AO2 T01110072
KPVW 220935Z AUTO 19006KT 10SM CLR 11/07 A3009 RMK AO2 T01130071
KPVW 220915Z AUTO 16007KT 10SM CLR 12/07 A3009 RMK AO2 T01170069
KPVW 220855Z AUTO 17010KT 10SM CLR 12/07 A3010 RMK AO2 T01210065
KPVW 220835Z AUTO 17011KT 10SM CLR 13/06 A3011 RMK AO2 LTG DSNT N T01250060
KPVW 220815Z AUTO 16012KT 10SM CLR 13/06 A3011 RMK AO2 LTG DSNT N T01280060
KPVW 220755Z AUTO 16010KT 10SM CLR 13/06 A3012 RMK AO2 T01330061
KPVW 220735Z AUTO 17013KT 10SM SCT070 SCT080 SCT120 14/07 A3012 RMK AO2 T01370067 TSNO
KPVW 220715Z AUTO 16017KT 10SM SCT090 BKN120 14/08 A3010 RMK AO2 T01410076
KPVW 220655Z AUTO 18011G15KT 10SM SCT040 SCT060 BKN090 14/07 A3014 RMK AO2 T01430074
KPVW 220635Z AUTO 21010KT 10SM VCTS SCT090 SCT120 14/07 A3015 RMK AO2 LTG DSNT NW T01410071
KPVW 220615Z AUTO 18009KT 10SM SCT075 BKN090 14/07 A3016 RMK AO2 LTG DSNT W T01400073
KPVW 220555Z AUTO 17007KT 10SM SCT080 SCT090 14/07 A3017 RMK AO2 LTG DSNT W T01400067 10207 20135 402490075
KPVW 220535Z AUTO 15006KT 10SM SCT042 BKN080 14/06 A3017 RMK AO2 T01410063
KPVW 220515Z AUTO 11003KT 10SM SCT040 OVC080 14/06 A3018 RMK AO2 LTG DSNT W T01430062
KPVW 220455Z AUTO 12004KT 10SM SCT038 BKN080 14/06 A3018 RMK AO2 T01360060
KPVW 220435Z AUTO 10004KT 10SM SCT080 14/06 A3017 RMK AO2 LTG DSNT W T01370057
KPVW 220415Z AUTO 11004KT 10SM SCT023 SCT080 15/06 A3016 RMK AO2 T01460060
KPVW 220355Z AUTO 13007KT 10SM SCT023 15/06 A3015 RMK AO2 LTG DSNT W T01500058
KPVW 220335Z AUTO 14007KT 10SM SCT080 15/06 A3014 RMK AO2 LTG DSNT W T01530056
KPVW 220315Z AUTO 13009KT 10SM OVC080 16/05 A3013 RMK AO2 T01580052
KPVW 220255Z AUTO 14009KT 10SM BKN080 16/05 A3013 RMK AO2 T01620050 TSNO
KPVW 220235Z AUTO 15010KT 10SM CLR 17/05 A3012 RMK AO2 T01660045
KPVW 220215Z AUTO 14010KT 10SM CLR 17/03 A3012 RMK AO2 T01700034
KPVW 220155Z AUTO 14011G16KT 10SM CLR 17/03 A3011 RMK AO2 LTG DSNT W T01730030
KPVW 220135Z AUTO 14011G16KT 10SM CLR 18/02 A3010 RMK AO2 T01800024
KPVW 220115Z AUTO 15016KT 10SM CLR 19/03 A3010 RMK AO2 T01870029
KPVW 220055Z AUTO 14016G20KT 10SM CLR 19/02 A3009 RMK AO2 T01920016
KPVW 220035Z AUTO 15017G26KT 10SM CLR 20/02 A3008 RMK AO2 T01970019
KPVW 220015Z AUTO 15020G25KT 10SM CLR 20/02 A3007 RMK AO2 T02030018
KPVW 212355Z AUTO 14020G26KT 10SM CLR 21/01 A3008 RMK AO2 T02090011 10249 20209
KPVW 212335Z AUTO 16018G26KT 10SM CLR 21/02 A3009 RMK AO2 T02130022
KPVW 212315Z AUTO 15020G25KT 10SM CLR 22/02 A3009 RMK AO2 T02220022
KPVW 212255Z AUTO 15019G24KT 10SM CLR 23/03 A3010 RMK AO2 T02280027
KPVW 212235Z AUTO 15017G26KT 10SM CLR 23/02 A3010 RMK AO2 T02290023
KPVW 212215Z AUTO 15019G27KT 10SM CLR 23/02 A3011 RMK AO2 T02270020
KPVW 212155Z AUTO 17017G22KT 10SM CLR 23/02 A3011 RMK AO2 T02330019
KPVW 212135Z AUTO 16015G20KT 10SM CLR 24/02 A3011 RMK AO2 T02350020
KPVW 212115Z AUTO 14013G20KT 10SM CLR 23/02 A3011 RMK AO2 T02340018
KPVW 212055Z AUTO 14017G22KT 10SM CLR 24/02 A3011 RMK AO2 T02400016
KPVW 212035Z AUTO 14013G22KT 10SM CLR 24/02 A3011 RMK AO2 T02420017 TSNO
KPVW 212015Z AUTO 13012G19KT 10SM CLR 25/01 A3011 RMK AO2 T02450013
KPVW 211955Z AUTO 14015G20KT 10SM CLR 24/01 A3013 RMK AO2 T02380011
KPVW 211935Z AUTO 16015G23KT 10SM CLR 24/02 A3013 RMK AO2 T02420018
KPVW 211915Z AUTO 17013G22KT 10SM CLR 24/02 A3014 RMK AO2 T02430023
KPVW 211855Z AUTO 13018G23KT 10SM CLR 24/03 A3014 RMK AO2 T02400030
KPVW 211835Z AUTO 14018G25KT 10SM CLR 23/02 A3015 RMK AO2 T02340023
KPVW 211815Z AUTO 16017G22KT 10SM CLR 23/03 A3017 RMK AO2 T02290030
KPVW 211755Z AUTO 15017G22KT 10SM CLR 23/04 A3018 RMK AO2 T02290037 10229 20075
KPVW 211735Z AUTO 14014G21KT 10SM CLR 23/04 A3018 RMK AO2 T02250038
KPVW 211715Z AUTO 15016G22KT 10SM CLR 22/04 A3019 RMK AO2 T02170037


Page loaded:  05:03 UTC  |   10:03 PM Pacific  |   11:03 PM Mountain  |   12:03 AM Central  |   01:03 AM Eastern

 

ADVISORIES

FORECASTS

FORECASTS

OBSERVATIONS

USER TOOLS

ABOUT US